Adamsville, AL (35005)

2:05 AM CDT on July 30, 2016 (GMT -0500)
Pinewood | | Change Station

Elev 600 ft 33.47 °N, 87.02 °W | Updated 4 seconds ago

Clear
Clear
73.2 °F
Feels Like 73.2 °F
N
0.0
Wind Variable Wind from SW
Gusts 0.0 mph

Today
High -- | Low -- °F
--% Chance of Precip.
Yesterday
High -- | Low -- °F
Precip. -- in
Pressure 29.98 in
Visibility 10.0 miles
Clouds Clear
Dew Point 72 °F
Humidity 97%
Rainfall 0.00 in
Snow Depth Not available.
5:59 AM 7:49 PM
Waning Crescent, 15% visible
METAR KBHM 300653Z 22005KT 10SM CLR 27/22 A3000 RMK AO2 SLP150 T02670222
Pressure 29.98 in
Visibility 10.0 miles
Clouds Clear
Dew Point 72 °F
Humidity 97%
Rainfall 0.00 in
Snow Depth Not available.
5:59 AM 7:49 PM
Waning Crescent, 15% visible
METAR KBHM 300653Z 22005KT 10SM CLR 27/22 A3000 RMK AO2 SLP150 T02670222

10-Day Weather Forecast

Almanac

Astronomy

Jul. 30, 2016 Rise Set
Actual Time
Civil Twilight
Nautical Twilight
Astronomical Twilight
Moon
Length of Visible Light
Length of Day
Tomorrow will be .
, % of the Moon is Illuminated

Today's Extremes

State Highs State Lows

Community

WunderPhotos

Upload Photos

1,928,508 photos uploaded!

WunderBlog® & News

Nearby

Air Quality

  Air Quality AQ Index Pollutant
Not available.

Snow Depth

Station Depth Elevation

Earthquake Activity

City Distance Mag. Time & Date
Minimum magnitude displayed is 2.5.

Coastal Water Temperatures

Place Temperature

Stations

Nearby Weather Stations

Station Location Temp. Windchill Dew Point Humidity Wind Precip. Elev Updated Type
                   

Watches & Warnings

There are currently no watches in effect.